createdAt,value
2018-11-28T05:00:29.671Z,87.01
2018-11-28T05:01:29.659Z,87.05
2018-11-28T05:02:29.634Z,86.80
2018-11-28T05:03:29.633Z,84.61
2018-11-28T05:04:29.610Z,84.33
2018-11-28T05:05:29.598Z,84.96
2018-11-28T05:06:29.589Z,85.02
2018-11-28T05:07:29.578Z,84.22
2018-11-28T05:08:29.584Z,84.39
2018-11-28T05:09:29.561Z,85.02
2018-11-28T05:10:29.550Z,85.55
2018-11-28T05:11:29.538Z,85.55
2018-11-28T05:12:29.534Z,85.24
2018-11-28T05:13:29.524Z,85.44
2018-11-28T05:14:29.501Z,85.17
2018-11-28T05:15:29.490Z,84.92
2018-11-28T05:16:29.479Z,85.44
2018-11-28T05:17:29.467Z,84.61
2018-11-28T05:18:29.471Z,85.34
2018-11-28T05:19:29.444Z,84.61
2018-11-28T05:20:29.442Z,85.24
2018-11-28T05:21:29.425Z,85.75
2018-11-28T05:22:29.416Z,85.55
2018-11-28T05:23:29.415Z,85.44
2018-11-28T05:24:29.391Z,85.44
2018-11-28T05:25:29.397Z,85.44
2018-11-28T05:26:29.369Z,85.55
2018-11-28T05:27:29.357Z,85.13
2018-11-28T05:28:29.360Z,84.39
2018-11-28T05:29:29.335Z,84.29
2018-11-28T05:30:29.323Z,84.81
2018-11-28T05:31:29.316Z,85.34
2018-11-28T05:32:29.304Z,85.55
2018-11-28T05:33:29.309Z,85.86
2018-11-28T05:34:29.281Z,85.65
2018-11-28T05:35:29.271Z,85.65
2018-11-28T05:36:29.260Z,85.55
2018-11-28T05:37:29.251Z,85.97
2018-11-28T05:38:29.249Z,86.49
2018-11-28T05:39:29.225Z,86.60
2018-11-28T05:40:29.224Z,86.38
2018-11-28T05:41:29.202Z,85.97
2018-11-28T05:42:29.191Z,85.34
2018-11-28T05:43:29.196Z,87.23
2018-11-28T05:44:29.168Z,87.01
2018-11-28T05:45:29.156Z,86.80
2018-11-28T05:46:29.145Z,86.91
2018-11-28T05:47:29.133Z,87.01
2018-11-28T05:48:29.150Z,86.49
2018-11-28T05:49:30.485Z,86.60
2018-11-28T05:50:29.107Z,85.75
2018-11-28T05:51:29.097Z,85.97
2018-11-28T05:52:29.094Z,86.91
2018-11-28T05:53:29.082Z,86.18
2018-11-28T05:54:29.063Z,86.60
2018-11-28T05:55:29.048Z,86.28
2018-11-28T05:56:29.036Z,86.49
2018-11-28T05:57:29.025Z,86.60
2018-11-28T05:58:29.027Z,86.49
2018-11-28T05:59:29.005Z,86.38
2018-11-28T06:00:29.004Z,86.80
2018-11-28T06:01:28.978Z,85.97
2018-11-28T06:02:28.968Z,86.60
2018-11-28T06:03:28.973Z,87.01
2018-11-28T06:04:28.961Z,86.91
2018-11-28T06:05:28.936Z,86.49
2018-11-28T06:06:28.922Z,86.49
2018-11-28T06:07:28.913Z,86.49
2018-11-28T06:08:28.916Z,86.49
2018-11-28T06:09:28.896Z,86.38
2018-11-28T06:10:28.884Z,85.97
2018-11-28T06:11:28.870Z,86.38
2018-11-28T06:12:28.861Z,86.49
2018-11-28T06:13:28.877Z,86.80
2018-11-28T06:14:28.838Z,85.97
2018-11-28T06:15:28.832Z,85.13
2018-11-28T06:16:28.813Z,85.75
2018-11-28T06:17:28.802Z,86.80
2018-11-28T06:18:28.791Z,86.07
2018-11-28T06:19:28.791Z,85.86
2018-11-28T06:20:28.771Z,85.65
2018-11-28T06:21:28.763Z,85.86
2018-11-28T06:22:28.745Z,86.07
2018-11-28T06:23:28.734Z,86.14
2018-11-28T06:24:28.736Z,85.55
2018-11-28T06:25:28.715Z,85.93
2018-11-28T06:26:28.703Z,85.93
2018-11-28T06:27:28.689Z,86.45
2018-11-28T06:28:28.677Z,85.72
2018-11-28T06:29:28.684Z,84.78
2018-11-28T06:30:28.660Z,85.51
2018-11-28T06:31:28.646Z,85.72
2018-11-28T06:32:28.638Z,85.41
2018-11-28T06:33:28.630Z,84.67
2018-11-28T06:34:28.633Z,84.88
2018-11-28T06:35:28.601Z,85.02
2018-11-28T06:36:28.610Z,85.24
2018-11-28T06:37:28.580Z,84.81
2018-11-28T06:38:28.569Z,85.75
2018-11-28T06:39:28.569Z,87.01
2018-11-28T06:40:28.545Z,86.70
2018-11-28T06:41:28.534Z,86.91
2018-11-28T06:42:28.523Z,86.49
2018-11-28T06:43:28.511Z,86.80
2018-11-28T06:44:28.516Z,87.12
2018-11-28T06:45:28.488Z,87.12
2018-11-28T06:46:28.501Z,87.33
2018-11-28T06:47:29.056Z,87.54
2018-11-28T06:48:28.458Z,87.33
2018-11-28T06:49:28.459Z,88.06
2018-11-28T06:50:28.438Z,87.74
2018-11-28T06:51:28.424Z,87.43
2018-11-28T06:52:28.411Z,87.43
2018-11-28T06:53:28.400Z,87.23
2018-11-28T06:54:28.409Z,87.08
2018-11-28T06:55:28.379Z,87.12
2018-11-28T06:56:28.367Z,87.01
2018-11-28T06:57:28.355Z,87.08
2018-11-28T06:58:28.346Z,87.85
2018-11-28T06:59:28.347Z,89.00
2018-11-28T07:00:28.328Z,87.92
2018-11-28T07:01:28.317Z,87.96
2018-11-28T07:02:28.300Z,87.85
2018-11-28T07:03:28.288Z,87.60
2018-11-28T07:04:28.303Z,86.87
2018-11-28T07:05:28.275Z,88.96
2018-11-28T07:06:28.262Z,88.96
2018-11-28T07:07:28.246Z,88.54
2018-11-28T07:08:28.236Z,86.98
2018-11-28T07:09:28.241Z,85.61
2018-11-28T07:10:28.212Z,86.45
2018-11-28T07:11:28.201Z,87.08
2018-11-28T07:12:28.190Z,86.98
2018-11-28T07:13:28.178Z,87.29
2018-11-28T07:14:28.179Z,86.77
2018-11-28T07:15:28.160Z,86.87
2018-11-28T07:16:28.146Z,86.98
2018-11-28T07:17:28.137Z,85.93
2018-11-28T07:18:28.126Z,85.72
2018-11-28T07:19:28.126Z,86.98
2018-11-28T07:20:28.107Z,87.08
2018-11-28T07:21:28.093Z,86.98
2018-11-28T07:22:28.080Z,86.77
2018-11-28T07:23:28.077Z,86.41
2018-11-28T07:24:28.073Z,85.41
2018-11-28T07:25:28.046Z,85.89
2018-11-28T07:26:28.035Z,86.45
2018-11-28T07:27:28.028Z,86.66
2018-11-28T07:28:28.013Z,86.93
2018-11-28T07:29:28.016Z,86.72
2018-11-28T07:30:27.989Z,86.72
2018-11-28T07:31:27.986Z,86.83
2018-11-28T07:32:27.970Z,86.72
2018-11-28T07:33:27.959Z,86.62
2018-11-28T07:34:27.960Z,86.52
2018-11-28T07:35:27.937Z,86.52
2018-11-28T07:36:27.944Z,86.83
2018-11-28T07:37:27.916Z,86.31
2018-11-28T07:38:27.903Z,85.89
2018-11-28T07:39:27.907Z,85.99
2018-11-28T07:40:27.880Z,85.36
2018-11-28T07:41:27.872Z,86.52
2018-11-28T07:42:27.857Z,86.93
2018-11-28T07:43:27.846Z,86.93
2018-11-28T07:44:27.850Z,86.20
2018-11-28T07:45:27.824Z,87.15
2018-11-28T07:46:27.812Z,86.62
2018-11-28T07:47:27.800Z,86.41
2018-11-28T07:48:27.793Z,86.20
2018-11-28T07:49:27.792Z,86.72
2018-11-28T07:50:27.770Z,86.41
2018-11-28T07:51:27.759Z,86.93
2018-11-28T07:52:27.749Z,86.41
2018-11-28T07:53:27.736Z,86.62
2018-11-28T07:54:27.737Z,85.85
2018-11-28T07:55:27.714Z,85.16
2018-11-28T07:56:27.702Z,85.33
2018-11-28T07:57:27.691Z,85.36
2018-11-28T07:58:27.686Z,86.16
2018-11-28T07:59:27.685Z,86.69
2018-11-28T08:00:27.665Z,86.79
2018-11-28T08:01:27.650Z,85.64
2018-11-28T08:02:27.635Z,85.85
2018-11-28T08:03:27.624Z,84.56
2018-11-28T08:04:27.660Z,85.33
2018-11-28T08:05:27.600Z,85.22
2018-11-28T08:06:27.594Z,83.93
2018-11-28T08:07:27.586Z,85.33
2018-11-28T08:08:27.570Z,84.24
2018-11-28T08:09:27.596Z,85.08
2018-11-28T08:10:27.566Z,84.97
2018-11-28T08:11:27.536Z,85.18
2018-11-28T08:12:27.525Z,85.18
2018-11-28T08:13:27.514Z,85.08
2018-11-28T08:14:27.518Z,85.39
2018-11-28T08:15:27.493Z,85.18
2018-11-28T08:16:27.484Z,84.77
2018-11-28T08:17:27.460Z,84.97
2018-11-28T08:18:27.461Z,84.97
2018-11-28T08:19:27.484Z,84.83
2018-11-28T08:20:27.434Z,84.14
2018-11-28T08:21:27.423Z,84.73
2018-11-28T08:22:27.450Z,84.94
2018-11-28T08:23:28.154Z,86.40
2018-11-28T08:24:27.396Z,86.61
2018-11-28T08:25:28.127Z,86.29
2018-11-28T08:26:27.366Z,85.52
2018-11-28T08:27:27.359Z,85.67
2018-11-28T08:28:27.345Z,85.11
2018-11-28T08:29:27.333Z,83.33
2018-11-28T08:30:27.347Z,82.29
2018-11-28T08:31:27.318Z,81.97
2018-11-28T08:32:27.306Z,82.50
2018-11-28T08:33:27.286Z,83.54
2018-11-28T08:34:27.274Z,83.54
2018-11-28T08:35:27.280Z,84.89
2018-11-28T08:36:27.262Z,83.44
2018-11-28T08:37:27.247Z,83.08
2018-11-28T08:38:27.248Z,82.04
2018-11-28T08:39:27.228Z,83.18
2018-11-28T08:40:27.215Z,83.50
2018-11-28T08:41:27.200Z,82.46
2018-11-28T08:42:27.195Z,81.69
2018-11-28T08:43:27.217Z,81.10
2018-11-28T08:44:27.166Z,81.52
2018-11-28T08:45:27.154Z,81.52
2018-11-28T08:46:27.143Z,82.14
2018-11-28T08:47:27.129Z,83.57
2018-11-28T08:48:27.125Z,82.31
2018-11-28T08:49:27.129Z,80.75
2018-11-28T08:50:27.099Z,80.96
2018-11-28T08:51:27.087Z,80.75
2018-11-28T08:52:27.072Z,80.75
2018-11-28T08:53:27.066Z,81.65
2018-11-28T08:54:27.074Z,81.34
2018-11-28T08:55:27.046Z,80.71
2018-11-28T08:56:27.032Z,79.53
2018-11-28T08:57:27.019Z,80.09
2018-11-28T08:58:27.015Z,79.98
2018-11-28T08:59:27.009Z,81.09
2018-11-28T09:00:26.993Z,79.67
2018-11-28T09:01:26.978Z,79.05
2018-11-28T09:02:26.962Z,80.09
2018-11-28T09:03:26.952Z,80.85
2018-11-28T09:04:26.957Z,80.92
2018-11-28T09:05:26.934Z,81.96
2018-11-28T09:06:26.923Z,81.02
2018-11-28T09:07:26.907Z,80.92
2018-11-28T09:08:26.896Z,80.92
2018-11-28T09:09:26.903Z,80.92
2018-11-28T09:10:26.873Z,80.82
2018-11-28T09:11:26.870Z,81.02
2018-11-28T09:12:26.849Z,80.40
2018-11-28T09:13:26.858Z,81.06
2018-11-28T09:14:26.844Z,80.82
2018-11-28T09:15:26.815Z,81.02
2018-11-28T09:16:26.809Z,80.71
2018-11-28T09:17:26.796Z,81.23
2018-11-28T09:18:26.791Z,81.55
2018-11-28T09:19:26.789Z,80.82
2018-11-28T09:20:26.764Z,80.82
2018-11-28T09:21:26.753Z,80.82
2018-11-28T09:22:26.740Z,80.82
2018-11-28T09:23:26.730Z,80.82
2018-11-28T09:24:26.733Z,80.47
2018-11-28T09:25:26.712Z,80.92
2018-11-28T09:26:26.696Z,80.57
2018-11-28T09:27:26.684Z,81.09
2018-11-28T09:28:26.673Z,80.78
2018-11-28T09:29:26.677Z,80.68
2018-11-28T09:30:26.648Z,80.26
2018-11-28T09:31:26.639Z,80.57
2018-11-28T09:32:26.626Z,80.57
2018-11-28T09:33:26.620Z,81.26
2018-11-28T09:34:26.622Z,81.30
2018-11-28T09:35:26.591Z,81.30
2018-11-28T09:36:26.582Z,80.95
2018-11-28T09:37:26.570Z,80.88
2018-11-28T09:38:26.560Z,81.37
2018-11-28T09:39:26.568Z,80.95
2018-11-28T09:40:26.540Z,80.74
2018-11-28T09:41:26.524Z,79.84
2018-11-28T09:42:26.512Z,81.09
2018-11-28T09:43:26.502Z,80.88
2018-11-28T09:44:26.503Z,81.09
2018-11-28T09:45:26.481Z,81.30
2018-11-28T09:46:26.468Z,81.30
2018-11-28T09:47:26.459Z,81.30
2018-11-28T09:48:26.445Z,81.47
2018-11-28T09:49:26.447Z,81.20
2018-11-28T09:50:26.425Z,81.68
2018-11-28T09:51:26.412Z,81.68
2018-11-28T09:52:26.403Z,81.26
2018-11-28T09:53:26.395Z,81.05
2018-11-28T09:54:26.388Z,81.26
2018-11-28T09:55:26.365Z,82.10
2018-11-28T09:56:26.356Z,81.79
2018-11-28T09:57:26.343Z,80.64
2018-11-28T09:58:26.331Z,77.89
2018-11-28T09:59:26.332Z,78.31
2018-11-28T10:00:26.355Z,78.42
2018-11-28T10:01:26.302Z,79.11
2018-11-28T10:02:26.292Z,79.11
2018-11-28T10:03:26.275Z,79.21
2018-11-28T10:04:26.285Z,78.69
2018-11-28T10:05:26.252Z,77.44
2018-11-28T10:06:26.241Z,77.20
2018-11-28T10:07:26.230Z,79.59
2018-11-28T10:08:26.219Z,77.61
2018-11-28T10:09:26.225Z,77.83
2018-11-28T10:10:26.196Z,77.93
2018-11-28T10:11:26.185Z,77.72
2018-11-28T10:12:26.173Z,76.78
2018-11-28T10:13:26.161Z,76.06
2018-11-28T10:14:26.163Z,76.23
2018-11-28T10:15:26.142Z,76.95
2018-11-28T10:16:26.134Z,77.69
2018-11-28T10:17:26.117Z,77.61
2018-11-28T10:18:26.102Z,75.22
2018-11-28T10:19:26.106Z,76.26
2018-11-28T10:20:26.080Z,76.89
2018-11-28T10:21:26.074Z,76.68
2018-11-28T10:22:26.057Z,76.54
2018-11-28T10:23:26.057Z,75.32
2018-11-28T10:24:26.044Z,75.01
2018-11-28T10:25:26.040Z,75.92
2018-11-28T10:26:26.017Z,76.85
2018-11-28T10:27:26.000Z,76.12
2018-11-28T10:28:25.992Z,75.81
2018-11-28T10:29:25.983Z,74.25
2018-11-28T10:30:25.982Z,75.19
2018-11-28T10:31:25.957Z,76.43
2018-11-28T10:32:25.944Z,75.81
2018-11-28T10:33:25.935Z,76.16
2018-11-28T10:34:29.465Z,75.19
2018-11-28T10:35:25.920Z,75.95
2018-11-28T10:36:25.902Z,76.12
2018-11-28T10:37:25.888Z,77.61
2018-11-28T10:38:25.881Z,76.47
2018-11-28T10:39:25.870Z,76.47
2018-11-28T10:40:25.872Z,77.93
2018-11-28T10:41:25.843Z,76.89
2018-11-28T10:42:25.833Z,76.89
2018-11-28T10:43:25.871Z,76.68
2018-11-28T10:44:25.810Z,76.85
2018-11-28T10:45:25.814Z,76.33
2018-11-28T10:46:25.779Z,75.29
2018-11-28T10:47:25.771Z,74.84
2018-11-28T10:48:25.760Z,74.84
2018-11-28T10:49:27.756Z,74.53
2018-11-28T10:50:25.758Z,76.51
2018-11-28T10:51:25.730Z,76.40
2018-11-28T10:52:25.723Z,76.51
2018-11-28T10:53:25.709Z,74.46
2018-11-28T10:54:25.699Z,74.84
2018-11-28T10:55:25.705Z,73.49
2018-11-28T10:56:25.672Z,74.74
2018-11-28T10:57:25.660Z,75.05
2018-11-28T10:58:25.649Z,75.67
2018-11-28T10:59:25.639Z,74.11
2018-11-28T11:00:25.640Z,75.26
2018-11-28T11:01:25.639Z,75.15
2018-11-28T11:02:25.604Z,75.26
2018-11-28T11:03:25.603Z,74.95
2018-11-28T11:04:25.582Z,74.84
2018-11-28T11:05:25.582Z,76.09
2018-11-28T11:06:25.582Z,76.19
2018-11-28T11:07:25.547Z,75.98
2018-11-28T11:08:25.542Z,74.84
2018-11-28T11:09:25.526Z,74.01
2018-11-28T11:10:25.528Z,75.67
2018-11-28T11:11:25.502Z,76.19
2018-11-28T11:12:25.494Z,75.98
2018-11-28T11:13:25.479Z,74.63
2018-11-28T11:14:25.471Z,74.74
2018-11-28T11:15:25.474Z,74.95
2018-11-28T11:16:25.449Z,75.15
2018-11-28T11:17:25.432Z,74.91
2018-11-28T11:18:25.474Z,75.15
2018-11-28T11:19:25.415Z,73.39
2018-11-28T11:20:25.412Z,74.29
2018-11-28T11:21:25.389Z,74.39
2018-11-28T11:22:25.378Z,74.11
2018-11-28T11:23:25.414Z,74.18
2018-11-28T11:24:25.354Z,74.18
2018-11-28T11:25:25.355Z,74.08
2018-11-28T11:26:25.334Z,73.25
2018-11-28T11:27:25.322Z,74.11
2018-11-28T11:28:25.314Z,74.60
2018-11-28T11:29:25.302Z,75.85
2018-11-28T11:30:25.298Z,74.60
2018-11-28T11:31:25.275Z,74.49
2018-11-28T11:32:25.282Z,75.64
2018-11-28T11:33:25.253Z,74.18
2018-11-28T11:34:25.237Z,75.01
2018-11-28T11:35:25.245Z,74.60
2018-11-28T11:36:25.214Z,75.15
2018-11-28T11:37:25.205Z,75.43
2018-11-28T11:38:25.196Z,76.40
2018-11-28T11:39:25.181Z,76.40
2018-11-28T11:40:25.186Z,76.40
2018-11-28T11:41:25.181Z,75.36
2018-11-28T11:42:25.157Z,75.26
2018-11-28T11:43:25.138Z,76.61
2018-11-28T11:44:25.127Z,78.06
2018-11-28T11:45:25.133Z,77.86
2018-11-28T11:46:25.111Z,76.51
2018-11-28T11:47:25.090Z,76.19
2018-11-28T11:48:25.080Z,76.40
2018-11-28T11:49:25.069Z,75.57
2018-11-28T11:50:25.075Z,76.09
2018-11-28T11:51:25.046Z,75.78
2018-11-28T11:52:25.036Z,76.09
2018-11-28T11:53:25.025Z,75.05
2018-11-28T11:54:25.019Z,74.91
2018-11-28T11:55:25.047Z,74.80
2018-11-28T11:56:24.990Z,76.72
2018-11-28T11:57:24.979Z,76.89
2018-11-28T11:58:24.969Z,76.19
2018-11-28T11:59:24.956Z,76.61
2018-11-28T12:00:24.961Z,76.40
2018-11-28T12:01:24.934Z,76.19
2018-11-28T12:02:24.922Z,76.54
2018-11-28T12:03:24.913Z,76.09
2018-11-28T12:04:24.908Z,76.85
2018-11-28T12:05:24.900Z,76.75
2018-11-28T12:06:24.877Z,77.89
2018-11-28T12:07:24.864Z,77.69
2018-11-28T12:08:24.856Z,76.12
2018-11-28T12:09:26.226Z,77.16
2018-11-28T12:10:24.845Z,76.43
2018-11-28T12:11:24.894Z,75.81
2018-11-28T12:12:24.811Z,76.43
2018-11-28T12:13:24.797Z,76.95
2018-11-28T12:14:24.785Z,77.48
2018-11-28T12:15:24.796Z,77.58
2018-11-28T12:16:24.761Z,78.41
2018-11-28T12:17:24.753Z,78.72
2018-11-28T12:18:24.740Z,78.62
2018-11-28T12:19:24.728Z,78.10
2018-11-28T12:20:24.733Z,79.59
2018-11-28T12:21:24.708Z,80.43
2018-11-28T12:22:24.696Z,80.43
2018-11-28T12:23:24.684Z,80.63
2018-11-28T12:24:24.673Z,80.63
2018-11-28T12:25:24.680Z,80.53
2018-11-28T12:26:24.649Z,79.07
2018-11-28T12:27:24.650Z,79.94
2018-11-28T12:28:24.629Z,81.15
2018-11-28T12:29:24.615Z,81.36
2018-11-28T12:30:24.617Z,81.71
2018-11-28T12:31:24.593Z,80.88
2018-11-28T12:32:24.590Z,80.88
2018-11-28T12:33:24.572Z,80.94
2018-11-28T12:34:24.564Z,80.57
2018-11-28T12:35:24.551Z,81.60
2018-11-28T12:36:24.553Z,81.92
2018-11-28T12:37:24.527Z,82.03
2018-11-28T12:38:24.510Z,82.23
2018-11-28T12:39:24.501Z,82.54
2018-11-28T12:40:24.489Z,82.65
2018-11-28T12:41:24.489Z,83.10
2018-11-28T12:42:24.466Z,82.06
2018-11-28T12:43:24.453Z,81.96
2018-11-28T12:44:24.441Z,82.06
2018-11-28T12:45:24.430Z,82.68
2018-11-28T12:46:24.436Z,81.92
2018-11-28T12:47:24.413Z,82.68
2018-11-28T12:48:24.397Z,83.20
2018-11-28T12:49:24.403Z,83.00
2018-11-28T12:50:24.373Z,83.52
2018-11-28T12:51:24.378Z,83.73
2018-11-28T12:52:24.353Z,82.89
2018-11-28T12:53:24.341Z,82.17
2018-11-28T12:54:24.330Z,82.58
2018-11-28T12:55:25.189Z,83.00
2018-11-28T12:56:24.319Z,83.00
2018-11-28T12:57:24.294Z,82.79
2018-11-28T12:58:24.290Z,82.89
2018-11-28T12:59:24.272Z,82.06
2018-11-28T13:00:24.273Z,82.89
2018-11-28T13:01:24.266Z,83.31
2018-11-28T13:02:24.238Z,81.85
2018-11-28T13:03:24.227Z,82.37
2018-11-28T13:04:24.214Z,82.89
2018-11-28T13:05:24.203Z,83.52
2018-11-28T13:06:24.200Z,83.14
2018-11-28T13:07:24.183Z,82.06
2018-11-28T13:08:24.158Z,83.45
2018-11-28T13:09:24.159Z,83.45
2018-11-28T13:10:24.165Z,83.66
2018-11-28T13:11:24.157Z,84.28
2018-11-28T13:12:24.127Z,84.91
2018-11-28T13:13:24.116Z,84.28
2018-11-28T13:14:24.103Z,84.70
2018-11-28T13:15:24.093Z,84.50
2018-11-28T13:16:24.087Z,84.33
2018-11-28T13:17:24.068Z,85.12
2018-11-28T13:18:24.056Z,85.68
2018-11-28T13:19:24.046Z,86.30
2018-11-28T13:20:24.034Z,84.95
2018-11-28T13:21:24.037Z,84.70
2018-11-28T13:22:24.012Z,85.05
2018-11-28T13:23:24.000Z,85.05
2018-11-28T13:24:23.992Z,85.58
2018-11-28T13:25:23.993Z,85.58
2018-11-28T13:26:23.978Z,84.95
2018-11-28T13:27:23.956Z,84.12
2018-11-28T13:28:23.946Z,84.22
2018-11-28T13:29:23.931Z,84.01
2018-11-28T13:30:23.916Z,84.84
2018-11-28T13:31:23.925Z,84.64
2018-11-28T13:32:23.896Z,84.74
2018-11-28T13:33:23.887Z,85.43
2018-11-28T13:34:23.871Z,85.16
2018-11-28T13:35:23.863Z,84.74
2018-11-28T13:36:23.866Z,84.74
2018-11-28T13:37:23.838Z,84.53
2018-11-28T13:38:23.828Z,84.70
2018-11-28T13:39:23.814Z,84.43
2018-11-28T13:40:23.808Z,85.05
2018-11-28T13:41:23.811Z,85.33
2018-11-28T13:42:23.782Z,85.43
2018-11-28T13:43:23.770Z,85.53
2018-11-28T13:44:23.759Z,84.84
2018-11-28T13:45:23.747Z,83.59
2018-11-28T13:46:23.758Z,82.31
2018-11-28T13:47:23.724Z,82.41
2018-11-28T13:48:23.715Z,83.56
2018-11-28T13:49:23.708Z,84.70
2018-11-28T13:50:23.741Z,84.81
2018-11-28T13:51:23.696Z,84.60
2018-11-28T13:52:23.670Z,84.91
2018-11-28T13:53:23.658Z,84.60
2018-11-28T13:54:23.641Z,84.81
2018-11-28T13:55:40.290Z,85.02
2018-11-28T13:56:58.371Z,85.33
2018-11-28T13:57:25.041Z,85.22
2018-11-28T13:58:23.603Z,84.91
2018-11-28T13:59:23.589Z,85.33
2018-11-28T14:00:23.577Z,84.70
2018-11-28T14:01:23.577Z,83.14
2018-11-28T14:02:23.554Z,83.04
2018-11-28T14:03:23.543Z,83.76
2018-11-28T14:04:23.532Z,84.50
2018-11-28T14:05:23.522Z,84.50
2018-11-28T14:06:23.523Z,83.97
2018-11-28T14:07:23.497Z,83.35
2018-11-28T14:08:23.486Z,83.66
2018-11-28T14:09:23.475Z,83.45
2018-11-28T14:10:23.465Z,83.45
2018-11-28T14:11:23.466Z,84.25
2018-11-28T14:12:23.440Z,84.39
2018-11-28T14:13:23.431Z,84.39
2018-11-28T14:14:23.419Z,84.91
2018-11-28T14:15:23.411Z,84.81
2018-11-28T14:16:23.406Z,84.39
2018-11-28T14:17:23.388Z,84.08
2018-11-28T14:18:23.373Z,84.39
2018-11-28T14:19:23.363Z,81.99
2018-11-28T14:20:23.358Z,82.10
2018-11-28T14:21:23.356Z,81.79
2018-11-28T14:22:23.335Z,82.17
2018-11-28T14:23:23.318Z,82.89
2018-11-28T14:24:23.305Z,82.68
2018-11-28T14:25:23.859Z,83.45
2018-11-28T14:26:23.296Z,82.27
2018-11-28T14:27:23.274Z,81.96
2018-11-28T14:28:23.265Z,81.85
2018-11-28T14:29:23.251Z,82.89
2018-11-28T14:30:23.238Z,82.89
2018-11-28T14:31:23.232Z,83.20
2018-11-28T14:32:23.216Z,83.52
2018-11-28T14:33:23.203Z,84.50
2018-11-28T14:34:23.189Z,84.35
2018-11-28T14:35:23.178Z,83.20
2018-11-28T14:36:23.184Z,83.87
2018-11-28T14:37:23.155Z,85.02
2018-11-28T14:38:23.148Z,86.06
2018-11-28T14:39:23.136Z,86.06
2018-11-28T14:40:23.121Z,86.06
2018-11-28T14:41:23.147Z,86.47
2018-11-28T14:42:23.098Z,86.47
2018-11-28T14:43:23.090Z,86.37
2018-11-28T14:44:23.079Z,86.37
2018-11-28T14:45:23.071Z,86.58
2018-11-28T14:46:23.052Z,86.83
2018-11-28T14:47:23.054Z,86.41
2018-11-28T14:48:23.031Z,86.61
2018-11-28T14:49:23.022Z,86.35
2018-11-28T14:50:23.011Z,87.14
2018-11-28T14:51:22.996Z,86.72
2018-11-28T14:52:23.000Z,86.66
2018-11-28T14:53:22.973Z,86.83
2018-11-28T14:54:22.963Z,86.97
2018-11-28T14:55:22.959Z,87.18
2018-11-28T14:56:22.944Z,87.39
2018-11-28T14:57:22.937Z,87.39
2018-11-28T14:58:22.918Z,87.49
2018-11-28T14:59:22.906Z,87.18
2018-11-28T15:00:22.903Z,87.12
2018-11-28T15:01:22.888Z,87.95
2018-11-28T15:02:22.892Z,88.37
2018-11-28T15:03:24.841Z,88.06
2018-11-28T15:04:22.850Z,88.41
2018-11-28T15:05:22.839Z,87.99
2018-11-28T15:06:22.817Z,88.41
2018-11-28T15:07:22.822Z,88.20
2018-11-28T15:08:22.803Z,88.55
2018-11-28T15:09:22.792Z,88.24
2018-11-28T15:10:22.786Z,88.65
2018-11-28T15:11:22.772Z,89.07
2018-11-28T15:12:22.775Z,88.55
2018-11-28T15:13:24.924Z,88.97
2018-11-28T15:14:22.736Z,88.76
2018-11-28T15:15:22.723Z,89.11
2018-11-28T15:16:22.711Z,89.11
2018-11-28T15:17:22.715Z,89.22
2018-11-28T15:18:22.709Z,89.43
2018-11-28T15:19:22.679Z,89.26
2018-11-28T15:20:22.671Z,89.58
2018-11-28T15:21:22.661Z,89.47
2018-11-28T15:22:22.657Z,89.78
2018-11-28T15:23:22.641Z,89.95
2018-11-28T15:24:22.622Z,89.89
2018-11-28T15:25:22.612Z,89.89
2018-11-28T15:26:22.599Z,90.41
2018-11-28T15:27:22.601Z,90.24
2018-11-28T15:28:22.577Z,90.41
2018-11-28T15:29:22.567Z,90.77
2018-11-28T15:30:24.519Z,90.66
2018-11-28T15:31:22.543Z,90.97
2018-11-28T15:32:22.548Z,90.66
2018-11-28T15:33:22.522Z,90.56
2018-11-28T15:34:22.510Z,90.87
2018-11-28T15:35:22.502Z,90.24
2018-11-28T15:36:22.492Z,90.39
2018-11-28T15:37:22.489Z,90.91
2018-11-28T15:38:22.467Z,90.59
2018-11-28T15:39:22.456Z,90.91
2018-11-28T15:40:22.438Z,91.12
2018-11-28T15:41:22.415Z,91.02
2018-11-28T15:42:22.428Z,91.33
2018-11-28T15:43:22.405Z,91.22
2018-11-28T15:44:22.385Z,91.33
2018-11-28T15:45:22.392Z,91.22
2018-11-28T15:46:22.375Z,91.33
2018-11-28T15:47:22.374Z,91.43
2018-11-28T15:48:22.398Z,91.47
2018-11-28T15:49:22.390Z,91.58
2018-11-28T15:50:22.352Z,91.27
2018-11-28T15:51:22.346Z,91.27
2018-11-28T15:52:22.319Z,91.89
2018-11-28T15:53:22.300Z,90.95
2018-11-28T15:54:22.285Z,92.10
2018-11-28T15:55:22.269Z,92.63
2018-11-28T15:56:22.257Z,92.94
2018-11-28T15:57:22.265Z,92.73
2018-11-28T15:58:22.235Z,91.89
2018-11-28T15:59:22.228Z,92.10
2018-11-28T16:00:22.478Z,92.00
2018-11-28T16:01:22.214Z,91.69
2018-11-28T16:02:22.210Z,91.37
2018-11-28T16:03:22.173Z,91.52
2018-11-28T16:04:22.167Z,92.04
2018-11-28T16:05:22.867Z,92.40
2018-11-28T16:06:22.145Z,92.19
2018-11-28T16:07:24.218Z,92.04
2018-11-28T16:08:22.120Z,92.08
2018-11-28T16:09:22.112Z,92.40
2018-11-28T16:10:22.096Z,92.19
2018-11-28T16:11:22.088Z,92.29
2018-11-28T16:12:22.092Z,92.92
2018-11-28T16:13:22.064Z,92.82
2018-11-28T16:14:22.053Z,93.44
2018-11-28T16:15:22.040Z,93.34
2018-11-28T16:16:22.023Z,92.92
2018-11-28T16:17:22.035Z,93.02
2018-11-28T16:18:22.030Z,93.02
2018-11-28T16:19:21.998Z,93.24
2018-11-28T16:20:21.986Z,93.02
2018-11-28T16:21:21.972Z,93.17
2018-11-28T16:22:21.979Z,93.76
2018-11-28T16:23:21.955Z,94.01
2018-11-28T16:24:21.940Z,93.80
2018-11-28T16:25:21.929Z,93.59
2018-11-28T16:26:21.917Z,94.64
2018-11-28T16:27:21.922Z,94.01
2018-11-28T16:28:21.895Z,93.97
2018-11-28T16:29:21.887Z,94.60
2018-11-28T16:30:21.883Z,94.43
2018-11-28T16:31:21.859Z,93.70
2018-11-28T16:32:21.880Z,93.87
2018-11-28T16:33:21.839Z,94.81
2018-11-28T16:34:21.826Z,94.22
2018-11-28T16:35:21.816Z,93.76
2018-11-28T16:36:21.811Z,93.59
2018-11-28T16:37:21.805Z,93.65
2018-11-28T16:38:21.782Z,93.97
2018-11-28T16:39:21.770Z,93.65
2018-11-28T16:40:21.760Z,93.87
2018-11-28T16:41:21.737Z,93.97
2018-11-28T16:42:21.769Z,93.65
2018-11-28T16:43:21.724Z,93.44
2018-11-28T16:44:21.713Z,93.44
2018-11-28T16:45:21.702Z,93.07
2018-11-28T16:46:21.676Z,92.71
2018-11-28T16:47:21.680Z,92.44
2018-11-28T16:48:21.680Z,93.07
2018-11-28T16:49:21.657Z,92.65
2018-11-28T16:50:21.646Z,92.86
2018-11-28T16:51:21.637Z,93.49
2018-11-28T16:52:21.621Z,93.43
2018-11-28T16:53:21.624Z,93.59
2018-11-28T16:54:21.603Z,92.90
2018-11-28T16:55:23.032Z,93.11
2018-11-28T16:56:23.565Z,93.21
2018-11-28T16:57:23.161Z,93.53
2018-11-28T16:58:23.881Z,93.32
2018-11-28T16:59:21.545Z,93.84
2018-11-28T17:00:21.533Z,94.06
2018-11-28T17:01:21.520Z,93.84
2018-11-28T17:02:21.510Z,93.84
2018-11-28T17:03:21.515Z,93.11
2018-11-28T17:04:21.487Z,93.15
2018-11-28T17:05:21.475Z,93.43
2018-11-28T17:06:21.463Z,93.88
2018-11-28T17:07:21.452Z,93.74
2018-11-28T17:08:21.457Z,94.20
2018-11-28T17:09:21.431Z,93.95
2018-11-28T17:10:21.419Z,94.79
2018-11-28T17:11:21.432Z,94.10
2018-11-28T17:12:21.397Z,94.20
2018-11-28T17:13:21.400Z,94.26
2018-11-28T17:14:21.374Z,94.31
2018-11-28T17:15:21.366Z,93.95
2018-11-28T17:16:21.895Z,94.37
2018-11-28T17:17:21.342Z,93.59
2018-11-28T17:18:21.343Z,93.27
2018-11-28T17:19:21.319Z,92.19
2018-11-28T17:20:21.312Z,92.29
2018-11-28T17:21:21.306Z,91.77
2018-11-28T17:22:23.136Z,91.98
2018-11-28T17:23:23.287Z,92.08
2018-11-28T17:24:21.265Z,92.08
2018-11-28T17:25:21.253Z,92.13
2018-11-28T17:26:21.242Z,92.02
2018-11-28T17:27:21.231Z,92.23
2018-11-28T17:28:21.237Z,92.23
2018-11-28T17:29:21.210Z,92.02
2018-11-28T17:30:21.187Z,91.91
2018-11-28T17:31:21.227Z,92.13
2018-11-28T17:32:21.178Z,92.29
2018-11-28T17:33:21.175Z,91.56
2018-11-28T17:34:21.156Z,90.51
2018-11-28T17:35:21.142Z,89.98
2018-11-28T17:36:21.131Z,90.51
2018-11-28T17:37:21.120Z,90.41
2018-11-28T17:38:21.126Z,90.61
2018-11-28T17:39:21.093Z,90.45
2018-11-28T17:40:21.082Z,91.60
2018-11-28T17:41:21.071Z,91.50
2018-11-28T17:42:21.062Z,92.13
2018-11-28T17:43:21.061Z,92.13
2018-11-28T17:44:21.038Z,92.33
2018-11-28T17:45:21.042Z,92.16
2018-11-28T17:46:21.019Z,92.13
2018-11-28T17:47:21.004Z,92.38
2018-11-28T17:48:21.010Z,91.85
2018-11-28T17:49:21.026Z,92.33
2018-11-28T17:50:20.970Z,92.02
2018-11-28T17:51:20.960Z,92.23
2018-11-28T17:52:20.950Z,92.44